createdAt,value
2023-04-04T00:00:52.915Z,7.60
2023-04-04T00:03:21.062Z,7.60
2023-04-04T00:05:49.146Z,7.60
2023-04-04T00:08:17.514Z,7.60
2023-04-04T00:10:45.519Z,7.50
2023-04-04T00:13:14.895Z,7.40
2023-04-04T00:15:42.924Z,7.40
2023-04-04T00:18:11.012Z,7.30
2023-04-04T00:20:39.727Z,7.30
2023-04-04T00:23:11.064Z,7.30
2023-04-04T00:25:39.180Z,7.50
2023-04-04T00:28:07.184Z,7.50
2023-04-04T00:30:36.931Z,7.40
2023-04-04T00:33:06.355Z,7.40
2023-04-04T00:35:34.540Z,7.30
2023-04-04T00:38:02.602Z,7.20
2023-04-04T00:40:30.660Z,7.30
2023-04-04T00:43:00.435Z,7.30
2023-04-04T00:45:28.614Z,7.30
2023-04-04T00:47:59.616Z,7.30
2023-04-04T00:50:27.823Z,7.20
2023-04-04T00:52:56.192Z,7.20
2023-04-04T00:55:24.392Z,7.30
2023-04-04T00:57:52.850Z,7.30
2023-04-04T01:00:21.412Z,7.30
2023-04-04T01:02:49.476Z,7.20
2023-04-04T01:05:19.076Z,7.20
2023-04-04T01:07:47.389Z,7.20
2023-04-04T01:10:15.560Z,7.20
2023-04-04T01:12:45.037Z,7.10
2023-04-04T01:15:13.103Z,7.10
2023-04-04T01:17:43.614Z,7.10
2023-04-04T01:20:15.674Z,7.00
2023-04-04T01:22:51.455Z,7.10
2023-04-04T01:25:22.073Z,7.10
2023-04-04T01:27:58.560Z,7.00
2023-04-04T01:30:30.848Z,7.00
2023-04-04T01:33:04.464Z,7.10
2023-04-04T01:35:42.364Z,7.10
2023-04-04T01:38:25.687Z,7.00
2023-04-04T01:40:58.606Z,7.00
2023-04-04T01:43:28.233Z,7.00
2023-04-04T01:45:56.358Z,7.00
2023-04-04T01:48:24.408Z,7.00
2023-04-04T01:50:55.562Z,7.00
2023-04-04T01:53:25.968Z,6.90
2023-04-04T01:55:54.300Z,6.90
2023-04-04T01:58:22.603Z,7.00
2023-04-04T02:00:52.643Z,6.90
2023-04-04T02:03:20.773Z,6.90
2023-04-04T02:05:49.266Z,6.80
2023-04-04T02:08:17.870Z,6.70
2023-04-04T02:10:52.056Z,6.80
2023-04-04T02:13:20.158Z,6.80
2023-04-04T02:15:50.143Z,6.80
2023-04-04T02:18:20.192Z,6.90
2023-04-04T02:20:48.258Z,6.90
2023-04-04T02:23:16.257Z,6.80
2023-04-04T02:25:44.283Z,6.90
2023-04-04T02:28:12.477Z,6.90
2023-04-04T02:30:40.724Z,6.90
2023-04-04T02:33:08.946Z,6.80
2023-04-04T02:35:38.364Z,6.80
2023-04-04T02:38:07.595Z,6.70
2023-04-04T02:40:42.698Z,6.80
2023-04-04T02:43:11.577Z,6.70
2023-04-04T02:45:40.156Z,6.80
2023-04-04T02:48:27.605Z,6.70
2023-04-04T02:51:01.116Z,6.90
2023-04-04T02:53:29.727Z,6.80
2023-04-04T02:56:03.936Z,6.60
2023-04-04T02:58:32.868Z,6.50
2023-04-04T03:01:01.039Z,6.50
2023-04-04T03:03:35.296Z,6.50
2023-04-04T03:06:05.573Z,6.40
2023-04-04T03:08:34.946Z,6.40
2023-04-04T03:11:03.296Z,6.40
2023-04-04T03:13:31.387Z,6.40
2023-04-04T03:16:02.670Z,6.40
2023-04-04T03:18:33.362Z,6.40
2023-04-04T03:21:01.706Z,6.40
2023-04-04T03:23:31.065Z,6.50
2023-04-04T03:25:59.570Z,6.40
2023-04-04T03:28:27.651Z,6.30
2023-04-04T03:30:55.656Z,6.40
2023-04-04T03:33:24.108Z,6.30
2023-04-04T03:35:52.205Z,6.30
2023-04-04T03:38:21.671Z,6.40
2023-04-04T03:40:51.373Z,6.30
2023-04-04T03:43:19.359Z,6.20
2023-04-04T03:45:49.232Z,6.20
2023-04-04T03:48:17.729Z,6.30
2023-04-04T03:50:45.763Z,6.30
2023-04-04T03:53:14.715Z,6.30
2023-04-04T03:55:42.985Z,6.20
2023-04-04T03:58:12.362Z,6.30
2023-04-04T04:00:40.893Z,6.30
2023-04-04T04:03:09.284Z,6.20
2023-04-04T04:05:37.415Z,6.00
2023-04-04T04:08:06.051Z,6.10
2023-04-04T04:10:34.630Z,6.20
2023-04-04T04:13:02.837Z,6.10
2023-04-04T04:15:32.402Z,6.20
2023-04-04T04:18:02.753Z,6.20
2023-04-04T04:20:30.818Z,6.20
2023-04-04T04:22:58.867Z,6.10
2023-04-04T04:25:26.984Z,6.10
2023-04-04T04:28:06.010Z,6.10
2023-04-04T04:30:35.371Z,6.40
2023-04-04T04:33:03.799Z,6.50
2023-04-04T04:35:39.821Z,6.30
2023-04-04T04:38:09.267Z,6.10
2023-04-04T04:40:37.864Z,6.20
2023-04-04T04:43:11.983Z,6.30
2023-04-04T04:45:42.779Z,6.20
2023-04-04T04:48:13.040Z,6.10
2023-04-04T04:50:47.032Z,6.00
2023-04-04T04:53:18.048Z,6.10
2023-04-04T04:55:48.202Z,6.00
2023-04-04T04:58:17.492Z,6.00
2023-04-04T05:00:51.659Z,6.00
2023-04-04T05:03:19.753Z,6.00
2023-04-04T05:05:50.182Z,6.00
2023-04-04T05:08:18.779Z,6.00
2023-04-04T05:11:04.736Z,5.90
2023-04-04T05:13:33.970Z,5.90
2023-04-04T05:16:04.844Z,6.00
2023-04-04T05:18:34.102Z,6.10
2023-04-04T05:21:02.657Z,6.00
2023-04-04T05:23:31.284Z,6.00
2023-04-04T05:25:59.290Z,6.10
2023-04-04T05:28:31.737Z,6.00
2023-04-04T05:31:05.142Z,6.10
2023-04-04T05:33:36.128Z,6.10
2023-04-04T05:36:17.840Z,6.10
2023-04-04T05:38:51.988Z,6.00
2023-04-04T05:41:23.830Z,6.10
2023-04-04T05:43:54.578Z,6.10
2023-04-04T05:46:27.001Z,6.10
2023-04-04T05:48:55.846Z,6.10
2023-04-04T05:51:24.459Z,6.20
2023-04-04T05:54:21.523Z,6.20
2023-04-04T05:56:49.697Z,6.30
2023-04-04T05:59:28.646Z,6.30
2023-04-04T06:02:02.658Z,6.40
2023-04-04T06:04:32.032Z,6.40
2023-04-04T06:07:02.423Z,6.50
2023-04-04T06:09:30.889Z,6.60
2023-04-04T06:11:59.025Z,6.60
2023-04-04T06:14:27.166Z,6.60
2023-04-04T06:16:55.229Z,6.60
2023-04-04T06:19:24.681Z,6.70
2023-04-04T06:21:52.777Z,6.80
2023-04-04T06:24:20.928Z,6.80
2023-04-04T06:26:52.742Z,6.90
2023-04-04T06:29:24.193Z,6.90
2023-04-04T06:31:52.384Z,7.00
2023-04-04T06:34:27.038Z,7.00
2023-04-04T06:36:57.490Z,7.00
2023-04-04T06:39:31.439Z,7.00
2023-04-04T06:42:02.262Z,7.10
2023-04-04T06:44:33.491Z,7.10
2023-04-04T06:47:01.583Z,7.10
2023-04-04T06:49:31.056Z,7.20
2023-04-04T06:52:00.420Z,7.20
2023-04-04T06:54:28.536Z,7.20
2023-04-04T06:56:56.513Z,7.20
2023-04-04T06:59:24.635Z,7.30
2023-04-04T07:01:52.825Z,7.30
2023-04-04T07:04:20.914Z,7.30
2023-04-04T07:06:50.287Z,7.40
2023-04-04T07:09:28.115Z,7.50
2023-04-04T07:11:57.101Z,7.50
2023-04-04T07:14:26.072Z,7.50
2023-04-04T07:16:55.136Z,7.60
2023-04-04T07:19:24.435Z,7.60
2023-04-04T07:21:53.829Z,7.60
2023-04-04T07:24:22.029Z,7.60
2023-04-04T07:26:50.236Z,7.70
2023-04-04T07:29:18.219Z,7.70
2023-04-04T07:31:46.270Z,7.70
2023-04-04T07:34:14.504Z,7.80
2023-04-04T07:36:42.505Z,7.80
2023-04-04T07:39:11.947Z,7.90
2023-04-04T07:41:41.044Z,7.90
2023-04-04T07:44:09.773Z,7.90
2023-04-04T07:46:38.219Z,7.90
2023-04-04T07:49:07.567Z,8.00
2023-04-04T07:51:36.031Z,8.00
2023-04-04T07:54:04.166Z,8.00
2023-04-04T07:56:33.560Z,8.10
2023-04-04T07:59:02.001Z,8.20
2023-04-04T08:01:30.808Z,8.20
2023-04-04T08:03:58.985Z,8.30
2023-04-04T08:06:27.236Z,8.40
2023-04-04T08:08:55.379Z,8.40
2023-04-04T08:11:23.422Z,8.40
2023-04-04T08:13:52.822Z,8.60
2023-04-04T08:16:21.397Z,8.60
2023-04-04T08:18:49.461Z,8.50
2023-04-04T08:21:17.687Z,8.60
2023-04-04T08:23:45.693Z,8.60
2023-04-04T08:26:13.750Z,8.70
2023-04-04T08:28:41.796Z,8.80
2023-04-04T08:31:12.374Z,8.80
2023-04-04T08:33:47.055Z,8.80
2023-04-04T08:36:16.131Z,8.90
2023-04-04T08:38:44.624Z,9.00
2023-04-04T08:41:13.482Z,9.00
2023-04-04T08:43:44.553Z,9.10
2023-04-04T08:46:16.519Z,9.20
2023-04-04T08:48:47.358Z,9.20
2023-04-04T08:51:16.805Z,9.20
2023-04-04T08:53:45.074Z,9.30
2023-04-04T08:56:13.478Z,9.30
2023-04-04T08:58:41.914Z,9.40
2023-04-04T09:01:10.055Z,9.40
2023-04-04T09:03:39.590Z,9.30
2023-04-04T09:06:08.805Z,9.30
2023-04-04T09:08:37.253Z,9.30
2023-04-04T09:11:06.148Z,9.40
2023-04-04T09:13:34.360Z,9.30
2023-04-04T09:16:02.447Z,9.40
2023-04-04T09:18:31.131Z,9.40
2023-04-04T09:21:09.426Z,9.40
2023-04-04T09:23:37.572Z,9.50
2023-04-04T09:26:06.630Z,9.50
2023-04-04T09:28:36.681Z,9.50
2023-04-04T09:31:09.862Z,9.50
2023-04-04T09:33:40.003Z,9.50
2023-04-04T09:36:12.782Z,9.50
2023-04-04T09:38:44.218Z,9.50
2023-04-04T09:41:16.183Z,9.60
2023-04-04T09:43:46.633Z,9.70
2023-04-04T09:46:15.951Z,9.70
2023-04-04T09:48:50.887Z,9.60
2023-04-04T09:51:20.287Z,9.70
2023-04-04T09:53:49.246Z,9.70
2023-04-04T09:56:17.343Z,9.70
2023-04-04T09:59:02.513Z,9.80
2023-04-04T10:01:31.904Z,9.90
2023-04-04T10:04:00.102Z,9.90
2023-04-04T10:06:31.621Z,10.00
2023-04-04T10:09:00.305Z,10.00
2023-04-04T10:11:33.433Z,10.10
2023-04-04T10:14:03.661Z,10.10
2023-04-04T10:16:33.304Z,10.10
2023-04-04T10:19:03.261Z,10.10
2023-04-04T10:21:32.886Z,10.10
2023-04-04T10:24:08.775Z,10.10
2023-04-04T10:26:37.240Z,10.20
2023-04-04T10:29:06.253Z,10.30
2023-04-04T10:31:38.506Z,10.40
2023-04-04T10:34:13.664Z,10.40
2023-04-04T10:36:47.096Z,10.50
2023-04-04T10:39:17.563Z,10.50
2023-04-04T10:41:47.789Z,10.60
2023-04-04T10:44:22.299Z,10.70
2023-04-04T10:46:55.063Z,10.70
2023-04-04T10:49:23.848Z,10.70
2023-04-04T10:51:56.776Z,10.80
2023-04-04T10:54:27.502Z,10.80
2023-04-04T10:56:56.577Z,10.90
2023-04-04T10:59:26.524Z,10.90
2023-04-04T11:01:58.080Z,10.90
2023-04-04T11:04:37.908Z,11.00
2023-04-04T11:07:12.332Z,11.10
2023-04-04T11:09:55.429Z,11.10
2023-04-04T11:12:36.213Z,11.20
2023-04-04T11:15:12.565Z,11.20
2023-04-04T11:18:14.331Z,11.10
2023-04-04T11:20:50.151Z,11.10
2023-04-04T11:23:22.127Z,11.20
2023-04-04T11:25:54.155Z,11.30
2023-04-04T11:28:43.529Z,11.40
2023-04-04T11:31:26.312Z,11.40
2023-04-04T11:33:59.472Z,11.30
2023-04-04T11:36:54.253Z,11.30
2023-04-04T11:39:31.096Z,11.30
2023-04-04T11:42:04.420Z,11.40
2023-04-04T11:44:33.895Z,11.40
2023-04-04T11:47:05.177Z,11.40
2023-04-04T11:49:36.924Z,11.40
2023-04-04T11:52:06.768Z,11.40
2023-04-04T11:54:36.708Z,11.40
2023-04-04T11:57:06.546Z,11.40
2023-04-04T11:59:40.560Z,11.50
2023-04-04T12:02:09.580Z,11.50
2023-04-04T12:04:39.809Z,11.50
2023-04-04T12:07:10.173Z,11.50
2023-04-04T12:09:39.746Z,11.50
2023-04-04T12:12:08.475Z,11.50
2023-04-04T12:14:36.497Z,11.50
2023-04-04T12:17:04.670Z,11.50
2023-04-04T12:19:37.471Z,11.50
2023-04-04T12:22:05.945Z,11.50
2023-04-04T12:24:34.473Z,11.60
2023-04-04T12:27:04.562Z,11.60
2023-04-04T12:29:36.286Z,11.70
2023-04-04T12:32:06.795Z,11.60
2023-04-04T12:34:47.145Z,11.70
2023-04-04T12:37:19.457Z,11.80
2023-04-04T12:39:49.406Z,11.80
2023-04-04T12:42:24.042Z,11.90
2023-04-04T12:44:53.752Z,12.00
2023-04-04T12:47:24.451Z,12.00
2023-04-04T12:49:55.229Z,12.00
2023-04-04T12:52:28.038Z,12.10
2023-04-04T12:55:08.016Z,12.10
2023-04-04T12:57:40.422Z,12.10
2023-04-04T13:00:09.802Z,12.10
2023-04-04T13:02:39.585Z,12.10
2023-04-04T13:05:11.151Z,12.00
2023-04-04T13:07:43.527Z,12.00
2023-04-04T13:10:14.521Z,12.00
2023-04-04T13:13:00.624Z,12.00
2023-04-04T13:15:50.367Z,12.00
2023-04-04T13:18:21.639Z,11.90
2023-04-04T13:20:49.965Z,11.90
2023-04-04T13:23:18.541Z,11.90
2023-04-04T13:25:46.927Z,11.90
2023-04-04T13:28:16.534Z,11.90
2023-04-04T13:30:48.974Z,11.80
2023-04-04T13:33:17.549Z,11.80
2023-04-04T13:35:46.121Z,11.90
2023-04-04T13:38:14.216Z,11.90
2023-04-04T13:40:42.292Z,11.90
2023-04-04T13:43:11.325Z,12.00
2023-04-04T13:45:42.738Z,12.00
2023-04-04T13:48:11.175Z,11.90
2023-04-04T13:50:41.993Z,11.90
2023-04-04T13:53:10.908Z,11.90
2023-04-04T13:55:43.954Z,11.90
2023-04-04T13:58:20.914Z,11.90
2023-04-04T14:00:50.954Z,12.00
2023-04-04T14:03:19.494Z,11.90
2023-04-04T14:05:47.610Z,12.00
2023-04-04T14:08:15.649Z,12.00
2023-04-04T14:10:43.650Z,12.00
2023-04-04T14:13:11.794Z,12.00
2023-04-04T14:15:40.782Z,12.00
2023-04-04T14:18:10.377Z,12.00
2023-04-04T14:20:38.508Z,12.00
2023-04-04T14:23:06.706Z,12.00
2023-04-04T14:25:36.061Z,12.00
2023-04-04T14:28:04.126Z,12.00
2023-04-04T14:30:32.162Z,12.10
2023-04-04T14:33:00.231Z,12.10
2023-04-04T14:35:29.717Z,12.10
2023-04-04T14:37:57.740Z,12.10
2023-04-04T14:40:25.860Z,12.10
2023-04-04T14:42:53.945Z,12.10
2023-04-04T14:45:22.421Z,12.10
2023-04-04T14:47:50.562Z,12.10
2023-04-04T14:50:18.885Z,12.10
2023-04-04T14:52:51.025Z,12.10
2023-04-04T14:55:20.406Z,12.10
2023-04-04T14:58:01.158Z,12.10
2023-04-04T15:00:30.987Z,12.10
2023-04-04T15:02:59.440Z,12.10
2023-04-04T15:05:27.611Z,12.10
2023-04-04T15:07:56.972Z,12.10
2023-04-04T15:10:25.048Z,12.10
2023-04-04T15:12:53.099Z,12.10
2023-04-04T15:15:22.393Z,12.10
2023-04-04T15:17:52.059Z,12.20
2023-04-04T15:20:20.123Z,12.20
2023-04-04T15:22:48.150Z,12.20
2023-04-04T15:25:17.552Z,12.20
2023-04-04T15:27:45.813Z,12.10
2023-04-04T15:30:14.985Z,12.20
2023-04-04T15:32:43.051Z,12.10
2023-04-04T15:35:18.084Z,12.10
2023-04-04T15:37:46.561Z,12.00
2023-04-04T15:40:15.445Z,12.00
2023-04-04T15:42:45.544Z,12.00
2023-04-04T15:45:14.104Z,12.00
2023-04-04T15:47:42.607Z,12.00
2023-04-04T15:50:11.742Z,12.00
2023-04-04T15:52:39.832Z,11.90
2023-04-04T15:55:12.556Z,11.90
2023-04-04T15:57:42.642Z,11.80
2023-04-04T16:00:14.077Z,11.80
2023-04-04T16:02:42.370Z,11.70
2023-04-04T16:05:11.158Z,11.70
2023-04-04T16:07:39.243Z,11.60
2023-04-04T16:10:08.350Z,11.60
2023-04-04T16:12:36.315Z,11.60
2023-04-04T16:15:05.969Z,11.60
2023-04-04T16:17:35.633Z,11.50
2023-04-04T16:20:03.910Z,11.40
2023-04-04T16:22:33.160Z,11.50
2023-04-04T16:25:01.144Z,11.40
2023-04-04T16:27:29.161Z,11.40
2023-04-04T16:29:57.158Z,11.40
2023-04-04T16:32:25.804Z,11.40
2023-04-04T16:34:57.682Z,11.30
2023-04-04T16:37:25.682Z,11.40
2023-04-04T16:39:53.689Z,11.40
2023-04-04T16:42:21.744Z,11.40
2023-04-04T16:44:50.251Z,11.50
2023-04-04T16:47:18.294Z,11.40
2023-04-04T16:49:47.950Z,11.40
2023-04-04T16:52:17.686Z,11.30
2023-04-04T16:54:45.754Z,11.30
2023-04-04T16:57:13.980Z,11.20
2023-04-04T16:59:41.994Z,11.20
2023-04-04T17:02:10.114Z,11.10
2023-04-04T17:04:41.208Z,11.00
2023-04-04T17:07:10.235Z,11.00
2023-04-04T17:09:39.818Z,11.00
2023-04-04T17:12:08.102Z,11.00
2023-04-04T17:14:36.676Z,10.90
2023-04-04T17:17:05.504Z,10.90
2023-04-04T17:19:35.115Z,10.90
2023-04-04T17:22:03.841Z,10.80
2023-04-04T17:24:34.034Z,10.80
2023-04-04T17:27:03.482Z,10.90
2023-04-04T17:29:31.859Z,10.80
2023-04-04T17:32:00.256Z,10.80
2023-04-04T17:34:28.380Z,10.70
2023-04-04T17:36:56.871Z,10.80
2023-04-04T17:39:25.156Z,10.70
2023-04-04T17:41:53.590Z,10.60
2023-04-04T17:44:23.170Z,10.60
2023-04-04T17:46:51.246Z,10.60
2023-04-04T17:49:20.004Z,10.50
2023-04-04T17:51:49.237Z,10.50
2023-04-04T17:54:17.686Z,10.40
2023-04-04T17:56:46.732Z,10.40
2023-04-04T17:59:15.788Z,10.30
2023-04-04T18:01:45.743Z,10.30
2023-04-04T18:04:13.801Z,10.20
2023-04-04T18:06:42.003Z,10.20
2023-04-04T18:09:10.783Z,10.20
2023-04-04T18:11:40.256Z,10.20
2023-04-04T18:14:08.373Z,10.10
2023-04-04T18:16:40.511Z,10.20
2023-04-04T18:19:10.962Z,10.20
2023-04-04T18:21:39.187Z,10.20
2023-04-04T18:24:10.985Z,10.10
2023-04-04T18:26:39.314Z,10.00
2023-04-04T18:29:07.400Z,10.00
2023-04-04T18:31:35.833Z,9.90
2023-04-04T18:34:03.969Z,9.90
2023-04-04T18:36:33.363Z,9.90
2023-04-04T18:39:01.858Z,9.80
2023-04-04T18:41:30.040Z,9.70
2023-04-04T18:43:58.054Z,9.70
2023-04-04T18:46:26.264Z,9.60
2023-04-04T18:48:54.308Z,9.60
2023-04-04T18:51:23.613Z,9.60
2023-04-04T18:53:53.264Z,9.60
2023-04-04T18:56:21.477Z,9.50
2023-04-04T18:58:49.692Z,9.50
2023-04-04T19:01:17.932Z,9.40
2023-04-04T19:03:48.009Z,9.50
2023-04-04T19:06:16.589Z,9.40
2023-04-04T19:08:45.979Z,9.30
2023-04-04T19:11:15.653Z,9.40
2023-04-04T19:13:43.763Z,9.30
2023-04-04T19:16:12.091Z,9.30
2023-04-04T19:18:40.429Z,9.20
2023-04-04T19:21:10.210Z,9.20
2023-04-04T19:23:39.452Z,9.10
2023-04-04T19:26:08.048Z,9.10
2023-04-04T19:28:37.482Z,9.20
2023-04-04T19:31:10.753Z,9.30
2023-04-04T19:33:39.599Z,9.30
2023-04-04T19:36:11.019Z,9.20
2023-04-04T19:38:42.281Z,9.20
2023-04-04T19:41:32.569Z,9.20
2023-04-04T19:44:02.067Z,9.10
2023-04-04T19:46:31.720Z,9.00
2023-04-04T19:49:00.535Z,8.90
2023-04-04T19:51:50.751Z,8.90
2023-04-04T19:54:23.342Z,8.90
2023-04-04T19:56:51.525Z,9.00
2023-04-04T19:59:48.219Z,9.00
2023-04-04T20:02:53.476Z,9.00
2023-04-04T20:06:03.931Z,9.00
2023-04-04T20:08:37.720Z,8.80
2023-04-04T20:11:06.894Z,8.80
2023-04-04T20:13:36.852Z,8.90
2023-04-04T20:16:09.227Z,8.70
2023-04-04T20:18:38.612Z,8.60
2023-04-04T20:21:09.549Z,8.50
2023-04-04T20:23:44.055Z,8.60
2023-04-04T20:26:14.401Z,8.60
2023-04-04T20:28:46.377Z,8.70
2023-04-04T20:31:19.572Z,8.70
2023-04-04T20:33:48.285Z,8.60
2023-04-04T20:36:32.795Z,8.70
2023-04-04T20:39:01.313Z,8.70
2023-04-04T20:41:29.431Z,8.60
2023-04-04T20:43:59.331Z,8.60
2023-04-04T20:46:32.036Z,8.60
2023-04-04T20:49:00.859Z,8.70
2023-04-04T20:51:30.855Z,8.60
2023-04-04T20:54:00.452Z,8.50
2023-04-04T20:56:55.063Z,8.40
2023-04-04T20:59:37.695Z,8.50
2023-04-04T21:02:12.811Z,8.40
2023-04-04T21:04:42.724Z,8.50
2023-04-04T21:07:34.152Z,8.40
2023-04-04T21:10:03.047Z,8.40
2023-04-04T21:12:31.036Z,8.40
2023-04-04T21:14:59.414Z,8.20
2023-04-04T21:17:29.091Z,8.40
2023-04-04T21:19:58.776Z,8.40
2023-04-04T21:22:26.958Z,8.50
2023-04-04T21:24:54.964Z,8.40
2023-04-04T21:27:35.940Z,8.40
2023-04-04T21:30:09.220Z,8.40
2023-04-04T21:32:38.675Z,8.30
2023-04-04T21:35:09.743Z,8.20
2023-04-04T21:37:39.284Z,8.20
2023-04-04T21:40:09.593Z,8.20
2023-04-04T21:42:37.637Z,8.30
2023-04-04T21:45:06.639Z,8.30
2023-04-04T21:47:34.731Z,8.20
2023-04-04T21:50:04.246Z,8.20
2023-04-04T21:52:32.260Z,8.10
2023-04-04T21:55:00.272Z,8.20
2023-04-04T21:57:28.294Z,8.20
2023-04-04T21:59:56.328Z,8.20
2023-04-04T22:02:24.367Z,8.10
2023-04-04T22:04:52.457Z,8.10
2023-04-04T22:07:21.912Z,8.10
2023-04-04T22:09:52.885Z,8.10
2023-04-04T22:12:23.165Z,8.10
2023-04-04T22:14:51.894Z,8.00
2023-04-04T22:17:23.583Z,8.00
2023-04-04T22:19:58.982Z,8.00
2023-04-04T22:22:29.762Z,8.00
2023-04-04T22:25:03.917Z,7.90
2023-04-04T22:27:32.392Z,8.00
2023-04-04T22:30:00.494Z,7.90
2023-04-04T22:32:33.106Z,8.10
2023-04-04T22:35:02.143Z,8.00
2023-04-04T22:37:31.848Z,8.10
2023-04-04T22:39:59.847Z,8.20
2023-04-04T22:42:27.884Z,8.00
2023-04-04T22:44:55.905Z,8.00
2023-04-04T22:47:24.011Z,7.90
2023-04-04T22:49:52.076Z,7.90
2023-04-04T22:52:22.748Z,7.80
2023-04-04T22:54:52.110Z,7.90
2023-04-04T22:57:20.127Z,7.90
2023-04-04T22:59:48.151Z,7.90
2023-04-04T23:02:16.533Z,7.80
2023-04-04T23:04:44.593Z,7.80
2023-04-04T23:07:12.700Z,7.80
2023-04-04T23:09:40.790Z,7.80
2023-04-04T23:12:11.159Z,8.00
2023-04-04T23:14:39.581Z,8.00
2023-04-04T23:17:07.600Z,7.90
2023-04-04T23:19:35.746Z,7.80
2023-04-04T23:22:03.907Z,7.90
2023-04-04T23:24:32.717Z,7.80
2023-04-04T23:27:00.846Z,7.90
2023-04-04T23:29:30.380Z,7.70
2023-04-04T23:31:58.403Z,7.80
2023-04-04T23:34:26.401Z,7.70
2023-04-04T23:36:54.427Z,7.70
2023-04-04T23:39:22.438Z,7.50
2023-04-04T23:41:51.101Z,7.50
2023-04-04T23:44:19.159Z,7.50
2023-04-04T23:46:49.806Z,7.50
2023-04-04T23:49:18.092Z,7.60
2023-04-04T23:51:46.270Z,7.70
2023-04-04T23:54:14.994Z,7.70
2023-04-04T23:56:43.052Z,7.70
2023-04-04T23:59:11.386Z,7.70
